• Join FlightAware (Why Join?)
  • Login
  • US Flag 
01:40PM EDT


 

Airport Tracker/Info


-or-


 

Live Flight TrackerFlight Track Log ✈ ASQ5415 ✈ 15-Jun-2013 ✈ KMOB - KATL

Flight Track Log - Related Links

Times and Time Zones

All times are in EDT time to prevent confusion due to time zone crossing. See the ASQ5415 flight status page for this flight to view local times or setup timezone preferences in your user account.

Time Position Orientation Groundspeed Altitude Reporting Facility
EDT Latitude Longitude Course Direction KTS MPH feet Rate Location/Type
07:06AM 30.7283 -88.2764 52° Northeast 193 222 1,600  Level Houston Center
07:07AM 30.7797 -88.2819 355° North 217 250 3,500 1,920 Climbing Houston Center
07:08AM 30.8256 -88.2233 48° Northeast 244 281 5,500 2,280 Climbing Houston Center
07:09AM 30.8758 -88.1578 48° Northeast 271 312 8,200 2,280 Climbing Houston Center
07:10AM 30.9272 -88.0911 48° Northeast 279 321 10,100 1,200 Climbing Houston Center
07:11AM 30.9856 -88.0144 48° Northeast 313 360 10,700 1,080 Climbing Houston Center
07:12AM 31.2922 -87.5785 52° Northeast  Level FlightAware Approximate
07:12AM 31.0508 -87.9297 48° Northeast 349 402 12,300  Level Houston Center
07:13AM 31.1106 -87.8517 48° Northeast 334 384 14,700 2,220 Climbing Houston Center
07:14AM 31.1808 -87.7589 48° Northeast 321 369 16,800 1,620 Climbing Houston Center
07:15AM 31.2417 -87.6781 49° Northeast 332 382 18,000 1,200 Climbing Houston Center
07:16AM 31.3050 -87.5939 49° Northeast 345 397 19,300 1,380 Climbing Houston Center
07:17AM 31.3683 -87.5086 49° Northeast 348 400 20,800 1,380 Climbing Houston Center
07:18AM 31.4319 -87.4242 49° Northeast 348 400 22,200 1,200 Climbing Houston Center
07:19AM 31.4956 -87.3381 49° Northeast 351 404 23,300 900 Climbing Houston Center
07:20AM 31.5619 -87.2519 48° Northeast 357 411 24,100 660 Climbing Houston Center
07:21AM 31.6294 -87.1597 49° Northeast 370 426 24,700 420 Climbing Houston Center
07:22AM 31.7003 -87.0647 49° Northeast 388 447 25,000 120 Climbing Houston Center
07:23AM 31.7756 -86.9625 49° Northeast 411 473 25,000  Level Houston Center
07:24AM 31.8478 -86.8675 48° Northeast 408 470 25,000  Level Atlanta Center
07:25AM 31.9294 -86.7600 48° Northeast 424 488 25,000 -120 Level Atlanta Center
07:26AM 32.0219 -86.6428 47° Northeast 435 501 24,800 -240 Descending Atlanta Center
07:27AM 32.1033 -86.5347 48° Northeast 435 501 24,600 -240 Descending Atlanta Center
07:28AM 32.1847 -86.4267 48° Northeast 435 501 24,400 -240 Descending Atlanta Center
07:29AM 32.2453 -86.3253 55° Northeast 429 494 24,200 -240 Descending Atlanta Center
07:30AM 32.3264 -86.2142 49° Northeast 424 488 24,000 -120 Descending Atlanta Center
07:31AM 32.3992 -86.1078 51° Northeast 429 494 24,000  Level Atlanta Center
07:32AM 32.4803 -85.9989 49° Northeast 429 494 24,000  Level Atlanta Center
07:33AM 32.5764 -85.8728 48° Northeast 447 514 24,000  Level Atlanta Center
07:34AM 32.6508 -85.7633 51° Northeast 447 514 24,000  Level Atlanta Center
07:35AM 32.7317 -85.6536 49° Northeast 447 514 24,000 -600 Level Atlanta Center
07:36AM 32.8083 -85.5439 50° Northeast 442 509 22,800 -1,860 Descending Atlanta Center
07:37AM 32.8825 -85.4414 49° Northeast 428 493 20,300 -2,460 Descending Atlanta Center
07:38AM 32.9544 -85.3386 50° Northeast 416 479 17,900 -2,400 Descending Atlanta Center
07:39AM 33.0267 -85.2381 49° Northeast 403 464 15,600 -2,040 Descending Atlanta Center
07:40AM 33.0878 -85.1644 45° Northeast 375 432 13,900 -1,800 Descending Atlanta Center
07:41AM 33.1492 -85.0783 50° Northeast 345 397 12,100 -1,140 Descending Atlanta Center
07:42AM 33.2061 -85.0047 47° Northeast 313 360 11,700 -1,020 Descending Atlanta Center
07:43AM 33.2589 -84.9331 49° Northeast 290 334 10,100 -1,680 Descending Atlanta Center
07:44AM 33.3156 -84.8617 46° Northeast 290 334 8,400 -1,380 Descending Atlanta Center
07:45AM 33.3867 -84.8325 19° North 277 319 7,400 -1,320 Descending Atlanta Center
07:46AM 33.4683 -84.8033 17° North 272 313 5,800 -1,620 Descending Atlanta Center
07:47AM 33.5394 -84.7864 11° North 262 302 4,200 -900 Descending Atlanta Center
07:48AM 33.6000 -84.7569 22° Northeast 252 290 4,000 -60 Descending Atlanta Center
07:50AM 33.6167 -84.6500 79° East 188 216 4,100 -240 Climbing Atlanta TRACON
07:51AM 33.6167 -84.6000 90° East 187 215 3,400 -900 Descending Atlanta TRACON
07:52AM 33.6167 -84.5333 90° East 173 199 2,400 -900 Descending Atlanta TRACON
07:53AM 33.6167 -84.4833 90° East 154 177 1,600 -840 Descending Atlanta TRACON
07:55AM 33.6367 -84.4279 90° East  Level Estimated
08:02AM 33.6367 -84.4279 292° West  Level Estimated